Swallowfield Close, Crewe weather

Latitude N 53° 04' 54" Longitude W 02° 27' 25" Elevation 52 m Grid Ref SJ69475393

This page shows a table of observations data for today using the Cumulus "recent history" webtags facility. It is experimental only. The table shows data observations at 10 minute intervals for the 8 hours prior to 14:30 on Thursday 19 September i.e. the time this page was processed by Cumulus. Ideally in the long-term this will be replaced by a script to read data/realtimelog.txt for the current (or selectable) date and display all the observations for the applicable meteorological date (19/09/2019 in this case) starting at midnight (rollover time). This will fix the start of the observations table to a defined point.

The graph shows the same data but at 5-minute intervals.


Table of observations data (at 10-minute intervals) for Swallowfield Close, Crewe since 05:30 on 19/09/2019
Observations
Time Temp Wind Chill Dewpoint Pressure Wind Speed Wind Gust Wind Dir Humidity Rainfall
05:30 8.3 °C 8.3 °C 7.7 °C 1028.9 hPa 0.0 km/h 0.0 km/h 96 % 0.0 mm
05:40 8.5 °C 8.5 °C 7.9 °C 1028.8 hPa 0.0 km/h 0.0 km/h 96 % 0.0 mm
05:50 8.7 °C 8.7 °C 8.1 °C 1029.0 hPa 0.0 km/h 0.0 km/h 96 % 0.0 mm
06:00 8.6 °C 8.6 °C 8.0 °C 1028.9 hPa 0.0 km/h 0.0 km/h 96 % 0.0 mm
06:10 8.3 °C 8.3 °C 7.7 °C 1029.2 hPa 0.0 km/h 0.0 km/h 96 % 0.0 mm
06:20 8.1 °C 8.1 °C 7.5 °C 1029.1 hPa 0.0 km/h 0.0 km/h 96 % 0.0 mm
06:30 7.9 °C 7.9 °C 7.5 °C 1029.2 hPa 0.0 km/h 0.0 km/h 97 % 0.0 mm
06:40 8.0 °C 8.0 °C 7.6 °C 1029.2 hPa 0.0 km/h 0.0 km/h 97 % 0.0 mm
06:50 8.3 °C 8.3 °C 7.9 °C 1029.3 hPa 0.0 km/h 0.0 km/h 97 % 0.0 mm
07:00 8.4 °C 8.4 °C 8.0 °C 1029.4 hPa 0.0 km/h 0.0 km/h 97 % 0.0 mm
07:10 8.6 °C 8.6 °C 8.2 °C 1029.2 hPa 0.0 km/h 0.0 km/h 97 % 0.0 mm
07:20 8.6 °C 8.6 °C 8.2 °C 1029.4 hPa 0.0 km/h 0.0 km/h 97 % 0.0 mm
07:30 8.6 °C 8.6 °C 8.2 °C 1029.4 hPa 0.0 km/h 0.0 km/h 97 % 0.0 mm
07:40 8.6 °C 8.6 °C 8.2 °C 1029.6 hPa 0.0 km/h 0.0 km/h 97 % 0.0 mm
07:50 8.7 °C 8.7 °C 8.3 °C 1029.6 hPa 0.0 km/h 0.0 km/h 97 % 0.0 mm
08:00 8.9 °C 8.9 °C 8.6 °C 1029.5 hPa 0.0 km/h 0.0 km/h 98 % 0.0 mm
08:10 9.6 °C 9.6 °C 9.1 °C 1029.6 hPa 0.0 km/h 0.0 km/h 97 % 0.0 mm
08:20 10.2 °C 10.2 °C 9.6 °C 1029.6 hPa 0.0 km/h 0.0 km/h 96 % 0.0 mm
08:30 10.4 °C 10.4 °C 9.8 °C 1029.8 hPa 0.0 km/h 0.0 km/h 96 % 0.0 mm
08:40 10.5 °C 10.5 °C 9.9 °C 1029.9 hPa 0.0 km/h 0.0 km/h 96 % 0.0 mm
08:50 10.9 °C 10.9 °C 10.4 °C 1029.9 hPa 0.0 km/h 0.0 km/h 97 % 0.0 mm
09:00 11.4 °C 11.4 °C 10.8 °C 1029.9 hPa 0.0 km/h 0.0 km/h 96 % 0.0 mm
09:10 11.9 °C 11.9 °C 11.3 °C 1029.9 hPa 0.0 km/h 0.0 km/h 96 % 0.0 mm
09:20 12.3 °C 12.3 °C 11.5 °C 1029.9 hPa 0.0 km/h 0.0 km/h 95 % 0.0 mm
09:30 12.8 °C 12.8 °C 12.0 °C 1030.1 hPa 0.0 km/h 0.0 km/h 95 % 0.0 mm
09:40 12.9 °C 12.9 °C 12.1 °C 1029.9 hPa 0.0 km/h 0.0 km/h 95 % 0.0 mm
09:50 13.8 °C 13.8 °C 12.9 °C 1030.0 hPa 0.0 km/h 0.0 km/h 94 % 0.0 mm
10:00 14.4 °C 14.4 °C 13.1 °C 1030.1 hPa 0.0 km/h 0.0 km/h 92 % 0.0 mm
10:10 14.5 °C 14.5 °C 12.7 °C 1030.1 hPa 0.0 km/h 0.0 km/h 89 % 0.0 mm
10:20 14.4 °C 14.4 °C 11.7 °C 1030.1 hPa 0.0 km/h 0.0 km/h 84 % 0.0 mm
10:30 14.5 °C 14.5 °C 11.3 °C 1030.1 hPa 0.0 km/h 0.0 km/h 81 % 0.0 mm
10:40 14.6 °C 14.6 °C 11.2 °C 1030.1 hPa 0.0 km/h 0.0 km/h 80 % 0.0 mm
10:50 14.9 °C 14.9 °C 11.3 °C 1030.1 hPa 0.0 km/h 0.0 km/h 79 % 0.0 mm
11:00 15.2 °C 15.2 °C 11.0 °C 1030.2 hPa 0.0 km/h 0.0 km/h 76 % 0.0 mm
11:10 15.5 °C 15.5 °C 10.9 °C 1030.2 hPa 0.0 km/h 0.0 km/h 74 % 0.0 mm
11:20 16.1 °C 16.1 °C 11.3 °C 1030.2 hPa 0.0 km/h 0.0 km/h 73 % 0.0 mm
11:30 16.8 °C 16.8 °C 11.5 °C 1030.1 hPa 0.1 km/h 1.1 km/h 71 % 0.0 mm
11:40 17.2 °C 17.2 °C 11.3 °C 1030.0 hPa 0.0 km/h 0.0 km/h 68 % 0.0 mm
11:50 19.2 °C 19.2 °C 11.5 °C 1030.0 hPa 0.0 km/h 0.0 km/h 61 % 0.0 mm
12:00 21.3 °C 21.3 °C 12.2 °C 1029.8 hPa 0.0 km/h 0.0 km/h 56 % 0.0 mm
12:10 23.9 °C 23.9 °C 13.5 °C 1029.8 hPa 0.0 km/h 0.0 km/h 52 % 0.0 mm
12:20 25.4 °C 25.4 °C 12.3 °C 1029.6 hPa 0.0 km/h 0.0 km/h 44 % 0.0 mm
12:30 25.0 °C 25.0 °C 10.9 °C 1029.7 hPa 0.0 km/h 0.0 km/h 41 % 0.0 mm
12:40 26.6 °C 26.6 °C 12.3 °C 1029.7 hPa 0.0 km/h 0.0 km/h 41 % 0.0 mm
12:50 26.3 °C 26.3 °C 10.9 °C 1029.7 hPa 0.0 km/h 0.0 km/h 38 % 0.0 mm
13:00 24.9 °C 24.9 °C 10.8 °C 1029.6 hPa 0.0 km/h 0.0 km/h 41 % 0.0 mm
13:10 27.0 °C 27.0 °C 11.5 °C 1029.3 hPa 0.0 km/h 0.0 km/h 38 % 0.0 mm
13:20 26.7 °C 26.7 °C 10.8 °C 1029.3 hPa 0.0 km/h 0.0 km/h 37 % 0.0 mm
13:30 26.3 °C 26.3 °C 9.2 °C 1029.3 hPa 0.0 km/h 0.0 km/h 34 % 0.0 mm
13:40 27.4 °C 27.4 °C 10.6 °C 1029.0 hPa 0.0 km/h 0.0 km/h 35 % 0.0 mm
13:50 28.6 °C 28.6 °C 10.8 °C 1029.1 hPa 0.0 km/h 0.0 km/h 33 % 0.0 mm
14:00 28.2 °C 28.2 °C 10.0 °C 1028.9 hPa 0.0 km/h 0.0 km/h 32 % 0.0 mm
14:10 28.1 °C 28.1 °C 9.9 °C 1028.8 hPa 0.0 km/h 0.0 km/h 32 % 0.0 mm
14:20 27.0 °C 27.0 °C 8.5 °C 1028.9 hPa 0.0 km/h 0.0 km/h 31 % 0.0 mm
:now: :trends: :gauges: :today/yesterday: :observations:
:month/year: :monthly records: :all-time records: :annual data: :noaa reports: :seasonal averages:
:mobile: :forum: :webcam: :system:



Page updated 19/09/2019 14:30:23
powered by Cumulus v1.9.4 (1099)